Decoded Metar for OIII (TEHERAN in IRAN) (IATA:THR) | Meteo·Mobile Aviation Weather
aviador You're here:

OIII Decoded Metar

TEHERAN in IRAN
Report Time2018-11-18 05:30:00
UTC Time2018-11-18 05:48:28
Flight Rules vfr VFR
WindCalm
Visibility8000 m
Phenomena:N/A
Clouds:N/A
Expected CloudBase > 4,000 ft AGL from Temp-Dew spread
CeilingNone
Temp13°C (ISA +6)
Dew Point03°C (51% RH)
AAT11.5°C
QNH1023 hPa
Density Alt4,360 ft
Elevation3,907 ft
Report Wrong Elevation
Raw Report
METAR OIII 180530Z 00000KT 8000 NSC 13/03 Q1023 A3022=

Extra information for OIII:More info

Metar Taf Metar & Taf Last 4 Metars F.Rules Stats Wind Profile Meteogram Temp Stats Airport Information Weather charts Add Link Nearby VenuesMetar ALERT Operation Metar Decoded Social comments